sensor_id;sensor_type;location;lat;lon;timestamp;P1;durP1;ratioP1;P2;durP2;ratioP2
6987;SDS011;3534;49.960;8.018;2023-08-01T00:00:11;10.53;;;4.23;;
6987;SDS011;3534;49.960;8.018;2023-08-01T00:02:38;6.43;;;3.50;;
6987;SDS011;3534;49.960;8.018;2023-08-01T00:05:07;5.40;;;3.23;;
6987;SDS011;3534;49.960;8.018;2023-08-01T00:07:35;9.30;;;3.63;;
6987;SDS011;3534;49.960;8.018;2023-08-01T00:10:01;5.13;;;3.20;;
6987;SDS011;3534;49.960;8.018;2023-08-01T00:12:28;7.80;;;3.47;;
6987;SDS011;3534;49.960;8.018;2023-08-01T00:14:57;5.23;;;3.73;;
6987;SDS011;3534;49.960;8.018;2023-08-01T00:17:23;4.70;;;3.47;;
6987;SDS011;3534;49.960;8.018;2023-08-01T00:19:50;8.80;;;3.97;;
6987;SDS011;3534;49.960;8.018;2023-08-01T00:22:17;6.37;;;3.60;;
6987;SDS011;3534;49.960;8.018;2023-08-01T00:24:43;5.87;;;4.13;;
6987;SDS011;3534;49.960;8.018;2023-08-01T00:27:12;6.00;;;4.27;;
6987;SDS011;3534;49.960;8.018;2023-08-01T00:29:39;7.17;;;4.13;;
6987;SDS011;3534;49.960;8.018;2023-08-01T00:32:07;6.90;;;3.53;;
6987;SDS011;3534;49.960;8.018;2023-08-01T00:34:34;5.07;;;3.97;;
6987;SDS011;3534;49.960;8.018;2023-08-01T00:37:01;4.07;;;3.67;;
6987;SDS011;3534;49.960;8.018;2023-08-01T00:39:28;7.27;;;3.97;;
6987;SDS011;3534;49.960;8.018;2023-08-01T00:41:54;5.73;;;4.23;;
6987;SDS011;3534;49.960;8.018;2023-08-01T00:44:21;7.10;;;4.17;;
6987;SDS011;3534;49.960;8.018;2023-08-01T00:46:48;6.13;;;3.33;;
6987;SDS011;3534;49.960;8.018;2023-08-01T00:49:16;4.80;;;3.80;;
6987;SDS011;3534;49.960;8.018;2023-08-01T00:51:43;10.93;;;3.83;;
6987;SDS011;3534;49.960;8.018;2023-08-01T00:54:10;5.07;;;4.20;;
6987;SDS011;3534;49.960;8.018;2023-08-01T00:56:37;4.40;;;3.80;;
6987;SDS011;3534;49.960;8.018;2023-08-01T00:59:04;7.63;;;4.80;;
6987;SDS011;3534;49.960;8.018;2023-08-01T01:01:31;6.03;;;3.70;;
6987;SDS011;3534;49.960;8.018;2023-08-01T01:03:58;5.63;;;4.37;;
6987;SDS011;3534;49.960;8.018;2023-08-01T01:06:27;8.53;;;4.33;;
6987;SDS011;3534;49.960;8.018;2023-08-01T01:08:58;5.47;;;3.97;;
6987;SDS011;3534;49.960;8.018;2023-08-01T01:11:24;9.57;;;4.77;;
6987;SDS011;3534;49.960;8.018;2023-08-01T01:13:51;9.17;;;3.87;;
6987;SDS011;3534;49.960;8.018;2023-08-01T01:16:18;5.60;;;4.00;;
6987;SDS011;3534;49.960;8.018;2023-08-01T01:18:45;6.27;;;4.10;;
6987;SDS011;3534;49.960;8.018;2023-08-01T01:21:13;5.23;;;3.63;;
6987;SDS011;3534;49.960;8.018;2023-08-01T01:23:40;7.00;;;4.03;;
6987;SDS011;3534;49.960;8.018;2023-08-01T01:26:08;6.20;;;4.00;;
6987;SDS011;3534;49.960;8.018;2023-08-01T01:28:36;5.47;;;3.57;;
6987;SDS011;3534;49.960;8.018;2023-08-01T01:31:03;7.70;;;4.53;;
6987;SDS011;3534;49.960;8.018;2023-08-01T01:33:30;5.83;;;4.00;;
6987;SDS011;3534;49.960;8.018;2023-08-01T01:35:59;5.53;;;3.93;;
6987;SDS011;3534;49.960;8.018;2023-08-01T01:38:28;5.37;;;3.53;;
6987;SDS011;3534;49.960;8.018;2023-08-01T01:40:54;6.00;;;4.23;;
6987;SDS011;3534;49.960;8.018;2023-08-01T01:43:21;7.33;;;4.30;;
6987;SDS011;3534;49.960;8.018;2023-08-01T01:45:48;11.03;;;4.60;;
6987;SDS011;3534;49.960;8.018;2023-08-01T01:48:14;7.80;;;4.23;;
6987;SDS011;3534;49.960;8.018;2023-08-01T01:50:41;6.30;;;3.80;;
6987;SDS011;3534;49.960;8.018;2023-08-01T01:53:07;5.13;;;3.40;;
6987;SDS011;3534;49.960;8.018;2023-08-01T01:55:35;5.60;;;3.20;;
6987;SDS011;3534;49.960;8.018;2023-08-01T01:58:02;5.80;;;3.70;;
6987;SDS011;3534;49.960;8.018;2023-08-01T02:00:29;5.50;;;3.17;;
6987;SDS011;3534;49.960;8.018;2023-08-01T02:02:56;5.53;;;3.27;;
6987;SDS011;3534;49.960;8.018;2023-08-01T02:05:22;6.00;;;3.90;;
6987;SDS011;3534;49.960;8.018;2023-08-01T02:07:49;5.80;;;3.23;;
6987;SDS011;3534;49.960;8.018;2023-08-01T02:10:16;3.57;;;3.00;;
6987;SDS011;3534;49.960;8.018;2023-08-01T02:12:44;7.20;;;3.20;;
6987;SDS011;3534;49.960;8.018;2023-08-01T02:15:10;6.60;;;3.00;;
6987;SDS011;3534;49.960;8.018;2023-08-01T02:17:37;7.00;;;2.60;;
6987;SDS011;3534;49.960;8.018;2023-08-01T02:20:04;4.63;;;2.70;;
6987;SDS011;3534;49.960;8.018;2023-08-01T02:22:32;4.40;;;2.70;;
6987;SDS011;3534;49.960;8.018;2023-08-01T02:24:58;8.77;;;2.80;;
6987;SDS011;3534;49.960;8.018;2023-08-01T02:27:25;7.60;;;3.23;;
6987;SDS011;3534;49.960;8.018;2023-08-01T02:29:53;4.47;;;3.20;;
6987;SDS011;3534;49.960;8.018;2023-08-01T02:32:20;4.23;;;3.00;;
6987;SDS011;3534;49.960;8.018;2023-08-01T02:34:47;4.00;;;2.60;;
6987;SDS011;3534;49.960;8.018;2023-08-01T02:37:13;4.07;;;2.73;;
6987;SDS011;3534;49.960;8.018;2023-08-01T02:39:40;4.43;;;2.80;;
6987;SDS011;3534;49.960;8.018;2023-08-01T02:42:07;4.13;;;2.97;;
6987;SDS011;3534;49.960;8.018;2023-08-01T02:44:34;3.93;;;2.80;;
6987;SDS011;3534;49.960;8.018;2023-08-01T02:47:02;4.63;;;2.60;;
6987;SDS011;3534;49.960;8.018;2023-08-01T02:49:31;3.93;;;2.80;;
6987;SDS011;3534;49.960;8.018;2023-08-01T02:51:57;10.10;;;2.77;;
6987;SDS011;3534;49.960;8.018;2023-08-01T02:54:24;3.33;;;2.30;;
6987;SDS011;3534;49.960;8.018;2023-08-01T02:56:51;2.23;;;1.90;;
6987;SDS011;3534;49.960;8.018;2023-08-01T02:59:17;2.47;;;1.83;;
6987;SDS011;3534;49.960;8.018;2023-08-01T03:01:44;2.90;;;2.40;;
6987;SDS011;3534;49.960;8.018;2023-08-01T03:04:12;5.47;;;2.50;;
6987;SDS011;3534;49.960;8.018;2023-08-01T03:06:40;2.90;;;2.10;;
6987;SDS011;3534;49.960;8.018;2023-08-01T03:09:06;4.73;;;2.20;;
6987;SDS011;3534;49.960;8.018;2023-08-01T03:11:33;7.03;;;2.30;;
6987;SDS011;3534;49.960;8.018;2023-08-01T03:14:01;3.93;;;1.90;;
6987;SDS011;3534;49.960;8.018;2023-08-01T03:16:29;4.30;;;2.50;;
6987;SDS011;3534;49.960;8.018;2023-08-01T03:18:56;3.67;;;2.10;;
6987;SDS011;3534;49.960;8.018;2023-08-01T03:21:25;3.23;;;2.23;;
6987;SDS011;3534;49.960;8.018;2023-08-01T03:23:52;3.30;;;2.30;;
6987;SDS011;3534;49.960;8.018;2023-08-01T03:26:19;3.67;;;2.47;;
6987;SDS011;3534;49.960;8.018;2023-08-01T03:28:45;6.73;;;2.60;;
6987;SDS011;3534;49.960;8.018;2023-08-01T03:31:12;3.40;;;2.57;;
6987;SDS011;3534;49.960;8.018;2023-08-01T03:33:39;5.13;;;2.63;;
6987;SDS011;3534;49.960;8.018;2023-08-01T03:36:06;4.07;;;2.70;;
6987;SDS011;3534;49.960;8.018;2023-08-01T03:38:34;4.33;;;2.40;;
6987;SDS011;3534;49.960;8.018;2023-08-01T03:41:00;6.90;;;2.73;;
6987;SDS011;3534;49.960;8.018;2023-08-01T03:43:29;4.53;;;2.70;;
6987;SDS011;3534;49.960;8.018;2023-08-01T03:45:55;5.80;;;2.97;;
6987;SDS011;3534;49.960;8.018;2023-08-01T03:48:22;2.87;;;2.67;;
6987;SDS011;3534;49.960;8.018;2023-08-01T03:50:49;5.00;;;2.70;;
6987;SDS011;3534;49.960;8.018;2023-08-01T03:53:15;2.63;;;2.37;;
6987;SDS011;3534;49.960;8.018;2023-08-01T03:55:44;4.70;;;2.40;;
6987;SDS011;3534;49.960;8.018;2023-08-01T03:58:12;3.67;;;2.13;;
6987;SDS011;3534;49.960;8.018;2023-08-01T04:00:39;6.50;;;2.20;;
6987;SDS011;3534;49.960;8.018;2023-08-01T04:03:06;4.07;;;2.13;;
6987;SDS011;3534;49.960;8.018;2023-08-01T04:05:33;6.13;;;2.60;;
6987;SDS011;3534;49.960;8.018;2023-08-01T04:07:59;4.93;;;2.80;;
6987;SDS011;3534;49.960;8.018;2023-08-01T04:10:26;6.27;;;2.33;;
6987;SDS011;3534;49.960;8.018;2023-08-01T04:12:54;4.23;;;2.43;;
6987;SDS011;3534;49.960;8.018;2023-08-01T04:15:21;5.13;;;2.50;;
6987;SDS011;3534;49.960;8.018;2023-08-01T04:17:47;5.50;;;2.67;;
6987;SDS011;3534;49.960;8.018;2023-08-01T04:20:14;3.20;;;2.43;;
6987;SDS011;3534;49.960;8.018;2023-08-01T04:22:41;3.57;;;2.33;;
6987;SDS011;3534;49.960;8.018;2023-08-01T04:25:08;1.80;;;1.70;;
6987;SDS011;3534;49.960;8.018;2023-08-01T04:27:34;2.03;;;1.87;;
6987;SDS011;3534;49.960;8.018;2023-08-01T04:30:03;1.93;;;1.70;;
6987;SDS011;3534;49.960;8.018;2023-08-01T04:32:30;3.30;;;2.10;;
6987;SDS011;3534;49.960;8.018;2023-08-01T04:34:57;2.73;;;2.10;;
6987;SDS011;3534;49.960;8.018;2023-08-01T04:37:23;8.87;;;1.97;;
6987;SDS011;3534;49.960;8.018;2023-08-01T04:39:51;1.60;;;1.50;;
6987;SDS011;3534;49.960;8.018;2023-08-01T04:42:17;6.43;;;1.97;;
6987;SDS011;3534;49.960;8.018;2023-08-01T04:44:44;1.40;;;1.30;;
6987;SDS011;3534;49.960;8.018;2023-08-01T04:47:13;3.60;;;1.83;;
6987;SDS011;3534;49.960;8.018;2023-08-01T04:49:40;4.47;;;1.50;;
6987;SDS011;3534;49.960;8.018;2023-08-01T04:52:07;4.13;;;1.60;;
6987;SDS011;3534;49.960;8.018;2023-08-01T04:54:34;3.10;;;1.70;;
6987;SDS011;3534;49.960;8.018;2023-08-01T04:57:00;2.97;;;1.37;;
6987;SDS011;3534;49.960;8.018;2023-08-01T04:59:27;2.93;;;1.50;;
6987;SDS011;3534;49.960;8.018;2023-08-01T05:01:54;1.73;;;1.17;;
6987;SDS011;3534;49.960;8.018;2023-08-01T05:04:22;2.13;;;1.13;;
6987;SDS011;3534;49.960;8.018;2023-08-01T05:06:48;1.30;;;1.10;;
6987;SDS011;3534;49.960;8.018;2023-08-01T05:09:15;2.20;;;0.87;;
6987;SDS011;3534;49.960;8.018;2023-08-01T05:11:42;1.43;;;1.00;;
6987;SDS011;3534;49.960;8.018;2023-08-01T05:14:08;1.37;;;0.93;;
6987;SDS011;3534;49.960;8.018;2023-08-01T05:16:35;1.10;;;1.00;;
6987;SDS011;3534;49.960;8.018;2023-08-01T05:19:02;2.00;;;1.10;;
6987;SDS011;3534;49.960;8.018;2023-08-01T05:21:30;3.23;;;1.17;;
6987;SDS011;3534;49.960;8.018;2023-08-01T05:23:56;2.20;;;1.40;;
6987;SDS011;3534;49.960;8.018;2023-08-01T05:26:24;1.60;;;1.30;;
6987;SDS011;3534;49.960;8.018;2023-08-01T05:28:50;1.20;;;0.90;;
6987;SDS011;3534;49.960;8.018;2023-08-01T05:31:17;1.10;;;1.00;;
6987;SDS011;3534;49.960;8.018;2023-08-01T05:33:44;5.70;;;1.47;;
6987;SDS011;3534;49.960;8.018;2023-08-01T05:36:10;1.67;;;1.07;;
6987;SDS011;3534;49.960;8.018;2023-08-01T05:38:38;1.03;;;0.90;;
6987;SDS011;3534;49.960;8.018;2023-08-01T05:41:05;0.80;;;0.70;;
6987;SDS011;3534;49.960;8.018;2023-08-01T05:43:32;1.90;;;0.77;;
6987;SDS011;3534;49.960;8.018;2023-08-01T05:45:58;0.70;;;0.70;;
6987;SDS011;3534;49.960;8.018;2023-08-01T05:48:25;1.73;;;0.93;;
6987;SDS011;3534;49.960;8.018;2023-08-01T05:50:52;1.87;;;0.80;;
6987;SDS011;3534;49.960;8.018;2023-08-01T05:53:20;1.17;;;1.07;;
6987;SDS011;3534;49.960;8.018;2023-08-01T05:55:48;1.37;;;1.17;;
6987;SDS011;3534;49.960;8.018;2023-08-01T05:58:15;2.27;;;1.10;;
6987;SDS011;3534;49.960;8.018;2023-08-01T06:00:41;3.43;;;1.43;;
6987;SDS011;3534;49.960;8.018;2023-08-01T06:03:08;1.40;;;1.20;;
6987;SDS011;3534;49.960;8.018;2023-08-01T06:05:35;3.27;;;1.10;;
6987;SDS011;3534;49.960;8.018;2023-08-01T06:08:02;1.60;;;1.30;;
6987;SDS011;3534;49.960;8.018;2023-08-01T06:10:29;2.60;;;1.37;;
6987;SDS011;3534;49.960;8.018;2023-08-01T06:12:57;0.97;;;0.90;;
6987;SDS011;3534;49.960;8.018;2023-08-01T06:15:24;1.43;;;0.73;;
6987;SDS011;3534;49.960;8.018;2023-08-01T06:17:51;3.10;;;0.90;;
6987;SDS011;3534;49.960;8.018;2023-08-01T06:20:17;1.47;;;0.80;;
6987;SDS011;3534;49.960;8.018;2023-08-01T06:22:44;1.07;;;0.60;;
6987;SDS011;3534;49.960;8.018;2023-08-01T06:25:11;0.60;;;0.50;;
6987;SDS011;3534;49.960;8.018;2023-08-01T06:27:38;0.70;;;0.40;;
6987;SDS011;3534;49.960;8.018;2023-08-01T06:30:06;1.10;;;0.70;;
6987;SDS011;3534;49.960;8.018;2023-08-01T06:32:34;0.70;;;0.50;;
6987;SDS011;3534;49.960;8.018;2023-08-01T06:35:00;0.70;;;0.60;;
6987;SDS011;3534;49.960;8.018;2023-08-01T06:37:27;0.87;;;0.47;;
6987;SDS011;3534;49.960;8.018;2023-08-01T06:39:54;0.70;;;0.70;;
6987;SDS011;3534;49.960;8.018;2023-08-01T06:42:21;2.30;;;0.80;;
6987;SDS011;3534;49.960;8.018;2023-08-01T06:44:47;0.70;;;0.67;;
6987;SDS011;3534;49.960;8.018;2023-08-01T06:47:15;2.63;;;0.60;;
6987;SDS011;3534;49.960;8.018;2023-08-01T06:49:42;2.80;;;1.07;;
6987;SDS011;3534;49.960;8.018;2023-08-01T06:52:09;1.47;;;0.87;;
6987;SDS011;3534;49.960;8.018;2023-08-01T06:54:36;1.17;;;0.50;;
6987;SDS011;3534;49.960;8.018;2023-08-01T06:57:03;0.60;;;0.40;;
6987;SDS011;3534;49.960;8.018;2023-08-01T06:59:30;1.43;;;0.77;;
6987;SDS011;3534;49.960;8.018;2023-08-01T07:01:57;0.90;;;0.50;;
6987;SDS011;3534;49.960;8.018;2023-08-01T07:04:25;1.17;;;0.53;;
6987;SDS011;3534;49.960;8.018;2023-08-01T07:06:51;0.60;;;0.47;;
6987;SDS011;3534;49.960;8.018;2023-08-01T07:09:18;1.00;;;0.60;;
6987;SDS011;3534;49.960;8.018;2023-08-01T07:11:45;4.97;;;0.50;;
6987;SDS011;3534;49.960;8.018;2023-08-01T07:14:11;1.17;;;0.50;;
6987;SDS011;3534;49.960;8.018;2023-08-01T07:16:38;5.97;;;0.57;;
6987;SDS011;3534;49.960;8.018;2023-08-01T07:19:05;6.37;;;0.70;;
6987;SDS011;3534;49.960;8.018;2023-08-01T07:21:33;0.70;;;0.50;;
6987;SDS011;3534;49.960;8.018;2023-08-01T07:23:59;0.77;;;0.57;;
6987;SDS011;3534;49.960;8.018;2023-08-01T07:26:26;3.13;;;0.90;;
6987;SDS011;3534;49.960;8.018;2023-08-01T07:28:53;1.20;;;0.70;;
6987;SDS011;3534;49.960;8.018;2023-08-01T07:31:20;6.00;;;0.97;;
6987;SDS011;3534;49.960;8.018;2023-08-01T07:33:47;0.80;;;0.70;;
6987;SDS011;3534;49.960;8.018;2023-08-01T07:36:13;1.93;;;0.60;;
6987;SDS011;3534;49.960;8.018;2023-08-01T07:38:42;1.73;;;1.00;;
6987;SDS011;3534;49.960;8.018;2023-08-01T07:41:08;0.87;;;0.60;;
6987;SDS011;3534;49.960;8.018;2023-08-01T07:43:35;5.83;;;0.73;;
6987;SDS011;3534;49.960;8.018;2023-08-01T07:46:02;0.70;;;0.70;;
6987;SDS011;3534;49.960;8.018;2023-08-01T07:48:28;0.80;;;0.70;;
6987;SDS011;3534;49.960;8.018;2023-08-01T07:50:55;1.20;;;0.80;;
6987;SDS011;3534;49.960;8.018;2023-08-01T07:53:22;1.67;;;0.73;;
6987;SDS011;3534;49.960;8.018;2023-08-01T07:55:51;1.23;;;0.90;;
6987;SDS011;3534;49.960;8.018;2023-08-01T07:58:18;2.27;;;0.80;;
6987;SDS011;3534;49.960;8.018;2023-08-01T08:00:44;1.47;;;0.80;;
6987;SDS011;3534;49.960;8.018;2023-08-01T08:03:11;0.77;;;0.60;;
6987;SDS011;3534;49.960;8.018;2023-08-01T08:05:38;1.10;;;0.63;;
6987;SDS011;3534;49.960;8.018;2023-08-01T08:08:05;0.70;;;0.50;;
6987;SDS011;3534;49.960;8.018;2023-08-01T08:10:32;0.90;;;0.60;;
6987;SDS011;3534;49.960;8.018;2023-08-01T08:13:00;1.27;;;0.90;;
6987;SDS011;3534;49.960;8.018;2023-08-01T08:15:27;6.00;;;0.70;;
6987;SDS011;3534;49.960;8.018;2023-08-01T08:17:58;0.80;;;0.73;;
6987;SDS011;3534;49.960;8.018;2023-08-01T08:20:25;2.00;;;1.30;;
6987;SDS011;3534;49.960;8.018;2023-08-01T08:22:52;2.70;;;1.00;;
6987;SDS011;3534;49.960;8.018;2023-08-01T08:25:18;1.73;;;0.93;;
6987;SDS011;3534;49.960;8.018;2023-08-01T08:27:45;2.00;;;0.97;;
6987;SDS011;3534;49.960;8.018;2023-08-01T08:30:14;5.20;;;0.90;;
6987;SDS011;3534;49.960;8.018;2023-08-01T08:32:41;1.63;;;0.90;;
6987;SDS011;3534;49.960;8.018;2023-08-01T08:35:08;1.23;;;1.13;;
6987;SDS011;3534;49.960;8.018;2023-08-01T08:37:36;2.20;;;1.10;;
6987;SDS011;3534;49.960;8.018;2023-08-01T08:40:03;1.30;;;1.00;;
6987;SDS011;3534;49.960;8.018;2023-08-01T08:42:30;1.10;;;0.80;;
6987;SDS011;3534;49.960;8.018;2023-08-01T08:44:59;1.53;;;1.20;;
6987;SDS011;3534;49.960;8.018;2023-08-01T08:47:29;4.03;;;1.00;;
6987;SDS011;3534;49.960;8.018;2023-08-01T08:49:59;1.13;;;1.00;;
6987;SDS011;3534;49.960;8.018;2023-08-01T08:52:26;3.57;;;1.10;;
6987;SDS011;3534;49.960;8.018;2023-08-01T08:54:52;2.20;;;0.90;;
6987;SDS011;3534;49.960;8.018;2023-08-01T08:57:20;1.73;;;1.30;;
6987;SDS011;3534;49.960;8.018;2023-08-01T08:59:48;2.50;;;1.63;;
6987;SDS011;3534;49.960;8.018;2023-08-01T09:02:16;2.00;;;1.13;;
6987;SDS011;3534;49.960;8.018;2023-08-01T09:04:45;5.13;;;1.33;;
6987;SDS011;3534;49.960;8.018;2023-08-01T09:07:11;1.70;;;1.30;;
6987;SDS011;3534;49.960;8.018;2023-08-01T09:09:41;2.97;;;1.20;;
6987;SDS011;3534;49.960;8.018;2023-08-01T09:12:08;2.20;;;1.50;;
6987;SDS011;3534;49.960;8.018;2023-08-01T09:14:35;8.40;;;1.00;;
6987;SDS011;3534;49.960;8.018;2023-08-01T09:17:06;5.17;;;1.13;;
6987;SDS011;3534;49.960;8.018;2023-08-01T09:19:33;1.20;;;1.10;;
6987;SDS011;3534;49.960;8.018;2023-08-01T09:22:02;1.60;;;1.00;;
6987;SDS011;3534;49.960;8.018;2023-08-01T09:24:36;3.10;;;1.20;;
6987;SDS011;3534;49.960;8.018;2023-08-01T09:27:03;1.47;;;1.10;;
6987;SDS011;3534;49.960;8.018;2023-08-01T09:29:31;2.20;;;1.03;;
6987;SDS011;3534;49.960;8.018;2023-08-01T09:31:57;1.90;;;1.03;;
6987;SDS011;3534;49.960;8.018;2023-08-01T09:34:24;1.83;;;1.10;;
6987;SDS011;3534;49.960;8.018;2023-08-01T09:36:57;3.80;;;1.67;;
6987;SDS011;3534;49.960;8.018;2023-08-01T09:39:26;2.40;;;1.47;;
6987;SDS011;3534;49.960;8.018;2023-08-01T09:41:56;1.90;;;1.20;;
6987;SDS011;3534;49.960;8.018;2023-08-01T09:44:23;2.80;;;1.13;;
6987;SDS011;3534;49.960;8.018;2023-08-01T09:46:57;7.47;;;1.60;;
6987;SDS011;3534;49.960;8.018;2023-08-01T09:49:25;2.47;;;1.20;;
6987;SDS011;3534;49.960;8.018;2023-08-01T09:51:52;3.10;;;1.13;;
6987;SDS011;3534;49.960;8.018;2023-08-01T09:54:19;1.87;;;1.10;;
6987;SDS011;3534;49.960;8.018;2023-08-01T09:56:49;2.73;;;1.50;;
6987;SDS011;3534;49.960;8.018;2023-08-01T09:59:18;4.10;;;1.10;;
6987;SDS011;3534;49.960;8.018;2023-08-01T10:01:47;2.03;;;1.03;;
6987;SDS011;3534;49.960;8.018;2023-08-01T10:06:46;13.70;;;1.50;;
6987;SDS011;3534;49.960;8.018;2023-08-01T10:09:15;4.43;;;1.57;;
6987;SDS011;3534;49.960;8.018;2023-08-01T10:11:43;3.93;;;1.33;;
6987;SDS011;3534;49.960;8.018;2023-08-01T10:14:11;2.27;;;1.40;;
6987;SDS011;3534;49.960;8.018;2023-08-01T10:16:38;3.63;;;1.63;;
6987;SDS011;3534;49.960;8.018;2023-08-01T10:19:07;12.43;;;1.77;;
6987;SDS011;3534;49.960;8.018;2023-08-01T10:21:37;2.70;;;1.43;;
6987;SDS011;3534;49.960;8.018;2023-08-01T10:24:05;1.33;;;1.23;;
6987;SDS011;3534;49.960;8.018;2023-08-01T10:26:33;1.50;;;1.20;;
6987;SDS011;3534;49.960;8.018;2023-08-01T10:29:00;3.13;;;1.40;;
6987;SDS011;3534;49.960;8.018;2023-08-01T10:31:29;4.73;;;1.40;;
6987;SDS011;3534;49.960;8.018;2023-08-01T10:34:03;3.97;;;1.70;;
6987;SDS011;3534;49.960;8.018;2023-08-01T10:36:30;3.03;;;1.37;;
6987;SDS011;3534;49.960;8.018;2023-08-01T10:38:58;3.73;;;1.57;;
6987;SDS011;3534;49.960;8.018;2023-08-01T10:41:26;2.40;;;1.40;;
6987;SDS011;3534;49.960;8.018;2023-08-01T10:44:04;3.97;;;1.40;;
6987;SDS011;3534;49.960;8.018;2023-08-01T10:46:45;6.23;;;1.40;;
6987;SDS011;3534;49.960;8.018;2023-08-01T10:49:13;4.10;;;1.47;;
6987;SDS011;3534;49.960;8.018;2023-08-01T10:51:40;4.43;;;1.23;;
6987;SDS011;3534;49.960;8.018;2023-08-01T10:54:17;4.70;;;1.73;;
6987;SDS011;3534;49.960;8.018;2023-08-01T10:56:45;3.27;;;1.00;;
6987;SDS011;3534;49.960;8.018;2023-08-01T10:59:12;1.03;;;0.90;;
6987;SDS011;3534;49.960;8.018;2023-08-01T11:01:43;1.67;;;1.27;;
6987;SDS011;3534;49.960;8.018;2023-08-01T11:04:15;2.23;;;1.23;;
6987;SDS011;3534;49.960;8.018;2023-08-01T11:06:43;2.00;;;1.10;;
6987;SDS011;3534;49.960;8.018;2023-08-01T11:09:15;3.27;;;1.47;;
6987;SDS011;3534;49.960;8.018;2023-08-01T11:11:43;3.87;;;1.43;;
6987;SDS011;3534;49.960;8.018;2023-08-01T11:14:11;1.87;;;1.70;;
6987;SDS011;3534;49.960;8.018;2023-08-01T11:16:38;2.87;;;1.27;;
6987;SDS011;3534;49.960;8.018;2023-08-01T11:19:16;2.43;;;1.57;;
6987;SDS011;3534;49.960;8.018;2023-08-01T11:21:44;2.53;;;1.00;;
6987;SDS011;3534;49.960;8.018;2023-08-01T11:24:11;2.60;;;1.50;;
6987;SDS011;3534;49.960;8.018;2023-08-01T11:26:40;3.00;;;1.67;;
6987;SDS011;3534;49.960;8.018;2023-08-01T11:29:07;2.63;;;1.33;;
6987;SDS011;3534;49.960;8.018;2023-08-01T11:31:35;1.93;;;1.13;;
6987;SDS011;3534;49.960;8.018;2023-08-01T11:34:02;2.67;;;1.33;;
6987;SDS011;3534;49.960;8.018;2023-08-01T11:36:30;2.73;;;1.33;;
6987;SDS011;3534;49.960;8.018;2023-08-01T11:38:57;4.00;;;1.60;;
6987;SDS011;3534;49.960;8.018;2023-08-01T11:41:24;2.27;;;1.37;;
6987;SDS011;3534;49.960;8.018;2023-08-01T11:43:53;1.83;;;1.17;;
6987;SDS011;3534;49.960;8.018;2023-08-01T11:46:20;3.23;;;1.30;;
6987;SDS011;3534;49.960;8.018;2023-08-01T11:48:47;3.83;;;1.50;;
6987;SDS011;3534;49.960;8.018;2023-08-01T11:51:15;1.77;;;1.30;;
6987;SDS011;3534;49.960;8.018;2023-08-01T11:53:43;2.70;;;1.50;;
6987;SDS011;3534;49.960;8.018;2023-08-01T11:56:19;5.60;;;2.13;;
6987;SDS011;3534;49.960;8.018;2023-08-01T11:58:46;3.90;;;1.47;;
6987;SDS011;3534;49.960;8.018;2023-08-01T12:01:13;2.57;;;1.20;;
6987;SDS011;3534;49.960;8.018;2023-08-01T12:03:44;1.73;;;1.60;;
6987;SDS011;3534;49.960;8.018;2023-08-01T12:06:11;3.03;;;1.70;;
6987;SDS011;3534;49.960;8.018;2023-08-01T12:08:39;3.10;;;1.47;;
6987;SDS011;3534;49.960;8.018;2023-08-01T12:11:17;2.57;;;1.30;;
6987;SDS011;3534;49.960;8.018;2023-08-01T12:13:45;2.50;;;1.03;;
6987;SDS011;3534;49.960;8.018;2023-08-01T12:16:12;1.60;;;1.33;;
6987;SDS011;3534;49.960;8.018;2023-08-01T12:18:40;1.50;;;1.30;;
6987;SDS011;3534;49.960;8.018;2023-08-01T12:21:09;3.90;;;1.33;;
6987;SDS011;3534;49.960;8.018;2023-08-01T12:23:36;2.03;;;0.97;;
6987;SDS011;3534;49.960;8.018;2023-08-01T12:26:03;2.43;;;1.50;;
6987;SDS011;3534;49.960;8.018;2023-08-01T12:28:31;3.70;;;1.60;;
6987;SDS011;3534;49.960;8.018;2023-08-01T12:30:58;4.10;;;1.60;;
6987;SDS011;3534;49.960;8.018;2023-08-01T12:33:24;2.70;;;1.73;;
6987;SDS011;3534;49.960;8.018;2023-08-01T12:35:51;2.33;;;1.40;;
6987;SDS011;3534;49.960;8.018;2023-08-01T12:38:18;2.27;;;1.30;;
6987;SDS011;3534;49.960;8.018;2023-08-01T12:40:44;2.63;;;1.23;;
6987;SDS011;3534;49.960;8.018;2023-08-01T12:43:12;3.30;;;1.50;;
6987;SDS011;3534;49.960;8.018;2023-08-01T12:45:40;3.53;;;1.60;;
6987;SDS011;3534;49.960;8.018;2023-08-01T12:48:06;1.77;;;1.23;;
6987;SDS011;3534;49.960;8.018;2023-08-01T12:50:33;3.77;;;1.90;;
6987;SDS011;3534;49.960;8.018;2023-08-01T12:52:59;1.73;;;1.10;;
6987;SDS011;3534;49.960;8.018;2023-08-01T12:55:26;2.20;;;1.47;;
6987;SDS011;3534;49.960;8.018;2023-08-01T12:57:53;3.27;;;1.23;;
6987;SDS011;3534;49.960;8.018;2023-08-01T13:00:19;3.33;;;1.20;;
6987;SDS011;3534;49.960;8.018;2023-08-01T13:02:48;3.43;;;1.13;;
6987;SDS011;3534;49.960;8.018;2023-08-01T13:05:15;3.83;;;1.07;;
6987;SDS011;3534;49.960;8.018;2023-08-01T13:07:42;2.03;;;1.03;;
6987;SDS011;3534;49.960;8.018;2023-08-01T13:10:09;4.10;;;1.00;;
6987;SDS011;3534;49.960;8.018;2023-08-01T13:12:37;6.20;;;1.60;;
6987;SDS011;3534;49.960;8.018;2023-08-01T13:15:04;3.83;;;1.40;;
6987;SDS011;3534;49.960;8.018;2023-08-01T13:17:31;8.23;;;1.77;;
6987;SDS011;3534;49.960;8.018;2023-08-01T13:19:59;3.10;;;1.33;;
6987;SDS011;3534;49.960;8.018;2023-08-01T13:22:26;5.10;;;1.53;;
6987;SDS011;3534;49.960;8.018;2023-08-01T13:24:53;4.57;;;1.60;;
6987;SDS011;3534;49.960;8.018;2023-08-01T13:27:19;2.60;;;1.43;;
6987;SDS011;3534;49.960;8.018;2023-08-01T13:29:46;7.10;;;1.30;;
6987;SDS011;3534;49.960;8.018;2023-08-01T13:32:15;2.73;;;1.90;;
6987;SDS011;3534;49.960;8.018;2023-08-01T13:34:42;3.20;;;1.90;;
6987;SDS011;3534;49.960;8.018;2023-08-01T13:37:10;2.00;;;1.40;;
6987;SDS011;3534;49.960;8.018;2023-08-01T13:39:37;4.47;;;1.77;;
6987;SDS011;3534;49.960;8.018;2023-08-01T13:42:04;5.53;;;1.67;;
6987;SDS011;3534;49.960;8.018;2023-08-01T13:44:31;4.70;;;1.40;;
6987;SDS011;3534;49.960;8.018;2023-08-01T13:46:58;3.63;;;1.40;;
6987;SDS011;3534;49.960;8.018;2023-08-01T13:49:25;3.20;;;1.80;;
6987;SDS011;3534;49.960;8.018;2023-08-01T13:51:51;2.07;;;1.67;;
6987;SDS011;3534;49.960;8.018;2023-08-01T13:54:19;4.13;;;1.60;;
6987;SDS011;3534;49.960;8.018;2023-08-01T13:56:46;4.80;;;2.00;;
6987;SDS011;3534;49.960;8.018;2023-08-01T13:59:13;2.27;;;1.60;;
6987;SDS011;3534;49.960;8.018;2023-08-01T14:01:40;1.90;;;1.40;;
6987;SDS011;3534;49.960;8.018;2023-08-01T14:04:07;3.70;;;1.90;;
6987;SDS011;3534;49.960;8.018;2023-08-01T14:06:33;2.70;;;1.70;;
6987;SDS011;3534;49.960;8.018;2023-08-01T14:09:00;3.20;;;1.87;;
6987;SDS011;3534;49.960;8.018;2023-08-01T14:11:29;4.43;;;1.60;;
6987;SDS011;3534;49.960;8.018;2023-08-01T14:13:55;2.10;;;1.73;;
6987;SDS011;3534;49.960;8.018;2023-08-01T14:16:22;3.77;;;1.73;;
6987;SDS011;3534;49.960;8.018;2023-08-01T14:18:49;5.60;;;1.70;;
6987;SDS011;3534;49.960;8.018;2023-08-01T14:21:15;2.20;;;1.60;;
6987;SDS011;3534;49.960;8.018;2023-08-01T14:23:42;2.80;;;1.57;;
6987;SDS011;3534;49.960;8.018;2023-08-01T14:26:09;3.00;;;1.60;;
6987;SDS011;3534;49.960;8.018;2023-08-01T14:28:37;5.63;;;1.90;;
6987;SDS011;3534;49.960;8.018;2023-08-01T14:31:04;5.20;;;2.60;;
6987;SDS011;3534;49.960;8.018;2023-08-01T14:33:32;3.83;;;2.07;;
6987;SDS011;3534;49.960;8.018;2023-08-01T14:35:59;6.47;;;2.07;;
6987;SDS011;3534;49.960;8.018;2023-08-01T14:38:26;5.60;;;1.80;;
6987;SDS011;3534;49.960;8.018;2023-08-01T14:40:53;1.90;;;1.80;;
6987;SDS011;3534;49.960;8.018;2023-08-01T14:43:19;5.63;;;1.70;;
6987;SDS011;3534;49.960;8.018;2023-08-01T14:45:48;4.00;;;1.97;;
6987;SDS011;3534;49.960;8.018;2023-08-01T14:48:14;3.23;;;1.67;;
6987;SDS011;3534;49.960;8.018;2023-08-01T14:50:41;3.00;;;1.73;;
6987;SDS011;3534;49.960;8.018;2023-08-01T14:53:07;3.60;;;1.50;;
6987;SDS011;3534;49.960;8.018;2023-08-01T14:55:34;3.60;;;2.07;;
6987;SDS011;3534;49.960;8.018;2023-08-01T14:58:01;2.13;;;1.27;;
6987;SDS011;3534;49.960;8.018;2023-08-01T15:00:28;4.53;;;1.60;;
6987;SDS011;3534;49.960;8.018;2023-08-01T15:02:56;5.10;;;1.90;;
6987;SDS011;3534;49.960;8.018;2023-08-01T15:05:24;6.60;;;2.30;;
6987;SDS011;3534;49.960;8.018;2023-08-01T15:07:50;2.43;;;1.40;;
6987;SDS011;3534;49.960;8.018;2023-08-01T15:10:17;3.13;;;1.30;;
6987;SDS011;3534;49.960;8.018;2023-08-01T15:12:44;5.00;;;1.47;;
6987;SDS011;3534;49.960;8.018;2023-08-01T15:15:10;3.30;;;1.60;;
6987;SDS011;3534;49.960;8.018;2023-08-01T15:17:37;1.50;;;1.40;;